Delta Virtual Airport Information Service

Dublin Airport

ICAO: EIDW Country: Ireland
Latitude: 53.4214 Longitude: -6.27
Latest Arrival : DLH978 (1) (EDDF-EIDW) Latest Departure : DALJUMP (EIDW-KLGA)


WX CaptureLIVE
Data provided by noaa.gov | Fetched at 17:12:58

METAR : EIDW 242130Z 33004KT 9999 FEW022 BKN050 09/05 Q1032 NOSIG

TAF : EIDW 241700Z 2418/2518 29008KT 9999 SCT020 BECMG 2423/2501 24005KT BECMG 2501/2503 VRB03KT BECMG 2507/2509 22012KT PROB30 TEMPO 2512/2515 22015G25KT


Runway Data for EIDW
Data provided by openaviationdata.com

Runway ID Mag Var Hdg Length Elevation Surface ILS Freq ILS Id ILS Slope
10 -5 100° 8842 ft 242 ft Asphalt 108.9 IDE 3
16 -5 162° 6824 ft 242 ft Asphalt 111.5 IAC 3
28 -5 280° 8842 ft 242 ft Asphalt 111.35 IDW 3
34 -5 342° 6824 ft 242 ft Asphalt -- -- --

Dublin Airport, Ireland
Use only for reference purposes



Not for navigational purposes.